createdAt,value
2023-03-16T00:00:27.989Z,0.00
2023-03-16T00:02:29.821Z,0.00
2023-03-16T00:04:31.980Z,0.00
2023-03-16T00:06:33.680Z,1.00
2023-03-16T00:08:37.431Z,0.00
2023-03-16T00:10:39.198Z,0.00
2023-03-16T00:12:41.120Z,0.33
2023-03-16T00:14:44.049Z,0.33
2023-03-16T00:16:52.438Z,0.00
2023-03-16T00:18:54.248Z,0.00
2023-03-16T00:20:58.011Z,1.33
2023-03-16T00:22:59.884Z,1.00
2023-03-16T00:25:01.514Z,0.00
2023-03-16T00:27:03.116Z,1.00
2023-03-16T00:29:04.962Z,0.00
2023-03-16T00:31:08.238Z,0.00
2023-03-16T00:33:12.717Z,0.00
2023-03-16T00:35:15.214Z,0.00
2023-03-16T00:37:19.131Z,0.00
2023-03-16T00:39:21.107Z,0.00
2023-03-16T00:41:22.635Z,0.00
2023-03-16T00:43:24.770Z,1.00
2023-03-16T00:45:26.402Z,0.33
2023-03-16T00:47:30.504Z,1.00
2023-03-16T00:49:35.895Z,0.00
2023-03-16T00:51:38.518Z,0.00
2023-03-16T00:53:41.988Z,0.33
2023-03-16T00:55:44.097Z,0.00
2023-03-16T00:57:45.835Z,0.00
2023-03-16T00:59:48.349Z,0.00
2023-03-16T01:01:49.999Z,0.00
2023-03-16T01:03:51.533Z,0.00
2023-03-16T01:05:55.409Z,0.00
2023-03-16T01:07:57.244Z,0.00
2023-03-16T01:10:01.479Z,0.00
2023-03-16T01:12:06.250Z,0.00
2023-03-16T01:14:08.265Z,0.33
2023-03-16T01:16:10.853Z,0.00
2023-03-16T01:18:12.737Z,1.00
2023-03-16T01:20:14.536Z,1.00
2023-03-16T01:22:20.098Z,0.00
2023-03-16T01:24:22.312Z,0.00
2023-03-16T01:26:25.476Z,1.00
2023-03-16T01:28:29.543Z,0.00
2023-03-16T01:30:31.408Z,0.00
2023-03-16T01:32:33.266Z,1.00
2023-03-16T01:34:35.544Z,0.00
2023-03-16T01:36:38.977Z,0.00
2023-03-16T01:38:42.815Z,1.00
2023-03-16T01:40:44.408Z,0.00
2023-03-16T01:42:47.451Z,1.00
2023-03-16T01:44:52.364Z,0.00
2023-03-16T01:46:54.139Z,1.00
2023-03-16T01:49:06.956Z,0.00
2023-03-16T01:51:12.279Z,0.00
2023-03-16T01:53:15.685Z,1.00
2023-03-16T01:55:21.251Z,1.00
2023-03-16T01:57:26.242Z,0.00
2023-03-16T01:59:32.713Z,0.00
2023-03-16T02:01:35.039Z,0.00
2023-03-16T02:03:36.679Z,0.00
2023-03-16T02:05:44.852Z,1.00
2023-03-16T02:07:48.901Z,1.00
2023-03-16T02:09:54.224Z,0.00
2023-03-16T02:11:58.684Z,1.00
2023-03-16T02:14:08.093Z,0.00
2023-03-16T02:16:10.758Z,1.00
2023-03-16T02:18:12.572Z,0.33
2023-03-16T02:20:30.255Z,0.00
2023-03-16T02:22:32.358Z,0.00
2023-03-16T02:24:36.432Z,0.00
2023-03-16T02:26:46.202Z,0.00
2023-03-16T02:29:00.001Z,0.00
2023-03-16T02:31:04.582Z,0.00
2023-03-16T02:33:07.497Z,0.67
2023-03-16T02:35:10.780Z,0.00
2023-03-16T02:37:12.398Z,0.00
2023-03-16T02:39:14.022Z,0.00
2023-03-16T02:41:20.110Z,0.00
2023-03-16T02:43:27.180Z,0.00
2023-03-16T02:45:33.221Z,0.00
2023-03-16T02:47:41.654Z,0.00
2023-03-16T02:49:45.443Z,0.00
2023-03-16T02:51:49.984Z,0.00
2023-03-16T02:53:54.001Z,0.00
2023-03-16T02:55:56.108Z,0.00
2023-03-16T02:57:58.317Z,0.00
2023-03-16T03:00:00.596Z,0.00
2023-03-16T03:02:02.542Z,0.00
2023-03-16T03:04:06.532Z,0.00
2023-03-16T03:06:08.798Z,0.00
2023-03-16T03:08:12.419Z,0.00
2023-03-16T03:10:14.012Z,0.00
2023-03-16T03:12:15.869Z,0.00
2023-03-16T03:14:17.540Z,0.33
2023-03-16T03:16:19.462Z,0.00
2023-03-16T03:18:21.407Z,0.00
2023-03-16T03:20:24.624Z,1.00
2023-03-16T03:22:30.243Z,0.00
2023-03-16T03:24:34.426Z,0.00
2023-03-16T03:26:36.656Z,0.00
2023-03-16T03:28:39.584Z,0.00
2023-03-16T03:30:41.174Z,0.00
2023-03-16T03:32:43.002Z,0.00
2023-03-16T03:34:46.825Z,0.00
2023-03-16T03:36:49.923Z,0.00
2023-03-16T03:38:51.777Z,0.00
2023-03-16T03:40:54.394Z,0.00
2023-03-16T03:42:56.095Z,0.33
2023-03-16T03:44:57.909Z,0.00
2023-03-16T03:46:59.719Z,0.00
2023-03-16T03:49:01.485Z,1.00
2023-03-16T03:51:03.349Z,0.00
2023-03-16T03:53:10.225Z,0.00
2023-03-16T03:55:12.150Z,0.00
2023-03-16T03:57:13.927Z,0.00
2023-03-16T03:59:15.572Z,0.00
2023-03-16T04:01:17.365Z,0.00
2023-03-16T04:03:19.102Z,0.00
2023-03-16T04:05:22.496Z,1.00
2023-03-16T04:07:24.236Z,0.00
2023-03-16T04:09:27.256Z,0.00
2023-03-16T04:11:28.836Z,0.00
2023-03-16T04:13:30.510Z,1.00
2023-03-16T04:15:32.143Z,0.00
2023-03-16T04:17:34.500Z,0.00
2023-03-16T04:19:37.655Z,1.00
2023-03-16T04:21:39.771Z,0.00
2023-03-16T04:23:49.117Z,0.00
2023-03-16T04:25:52.288Z,0.00
2023-03-16T04:27:54.209Z,0.00
2023-03-16T04:29:55.764Z,1.00
2023-03-16T04:31:57.561Z,1.00
2023-03-16T04:33:59.604Z,0.00
2023-03-16T04:36:01.658Z,0.00
2023-03-16T04:38:03.904Z,0.00
2023-03-16T04:40:06.604Z,0.00
2023-03-16T04:42:09.715Z,0.00
2023-03-16T04:44:11.440Z,0.00
2023-03-16T04:46:13.334Z,1.00
2023-03-16T04:48:14.963Z,0.00
2023-03-16T04:50:16.614Z,0.00
2023-03-16T04:52:18.454Z,0.00
2023-03-16T04:54:20.074Z,0.00
2023-03-16T04:56:21.931Z,0.00
2023-03-16T04:58:25.267Z,0.33
2023-03-16T05:00:27.263Z,0.00
2023-03-16T05:02:28.982Z,0.00
2023-03-16T05:04:30.516Z,0.00
2023-03-16T05:06:32.320Z,0.00
2023-03-16T05:08:33.884Z,0.00
2023-03-16T05:10:35.776Z,0.00
2023-03-16T05:12:37.335Z,0.00
2023-03-16T05:14:40.425Z,0.00
2023-03-16T05:16:42.079Z,0.67
2023-03-16T05:18:43.617Z,0.00
2023-03-16T05:20:45.666Z,0.00
2023-03-16T05:22:47.353Z,0.00
2023-03-16T05:24:48.971Z,0.00
2023-03-16T05:26:51.035Z,0.00
2023-03-16T05:28:52.707Z,0.00
2023-03-16T05:30:55.849Z,0.00
2023-03-16T05:32:57.404Z,0.00
2023-03-16T05:34:59.294Z,0.00
2023-03-16T05:37:01.038Z,0.00
2023-03-16T05:39:02.914Z,0.00
2023-03-16T05:41:05.997Z,0.00
2023-03-16T05:43:08.283Z,0.00
2023-03-16T05:45:12.671Z,1.00
2023-03-16T05:47:15.741Z,0.00
2023-03-16T05:49:17.867Z,0.00
2023-03-16T05:51:19.454Z,1.00
2023-03-16T05:53:21.252Z,0.00
2023-03-16T05:55:22.896Z,0.00
2023-03-16T05:57:24.814Z,1.00
2023-03-16T05:59:27.000Z,0.67
2023-03-16T06:01:29.141Z,0.00
2023-03-16T06:03:32.247Z,1.00
2023-03-16T06:05:34.040Z,0.00
2023-03-16T06:07:37.679Z,1.00
2023-03-16T06:09:39.493Z,1.00
2023-03-16T06:11:41.449Z,0.67
2023-03-16T06:13:43.513Z,0.67
2023-03-16T06:15:45.125Z,1.00
2023-03-16T06:17:46.716Z,0.00
2023-03-16T06:19:49.793Z,0.00
2023-03-16T06:21:52.079Z,0.00
2023-03-16T06:23:53.757Z,0.00
2023-03-16T06:25:56.145Z,1.33
2023-03-16T06:27:59.055Z,0.00
2023-03-16T06:30:00.692Z,1.00
2023-03-16T06:32:02.868Z,1.00
2023-03-16T06:34:04.795Z,1.00
2023-03-16T06:36:08.757Z,1.00
2023-03-16T06:38:10.353Z,1.00
2023-03-16T06:40:12.648Z,0.00
2023-03-16T06:42:14.461Z,0.33
2023-03-16T06:44:16.082Z,0.67
2023-03-16T06:46:17.797Z,0.00
2023-03-16T06:48:19.437Z,0.33
2023-03-16T06:50:21.227Z,0.67
2023-03-16T06:52:24.147Z,0.00
2023-03-16T06:54:26.140Z,0.00
2023-03-16T06:56:27.692Z,0.00
2023-03-16T06:58:29.204Z,0.00
2023-03-16T07:00:32.113Z,0.00
2023-03-16T07:02:33.847Z,1.00
2023-03-16T07:04:35.546Z,4.00
2023-03-16T07:06:37.072Z,0.00
2023-03-16T07:08:39.989Z,0.33
2023-03-16T07:10:41.520Z,1.00
2023-03-16T07:12:43.419Z,0.00
2023-03-16T07:14:46.285Z,0.00
2023-03-16T07:16:49.999Z,1.00
2023-03-16T07:18:51.888Z,1.33
2023-03-16T07:20:53.838Z,0.67
2023-03-16T07:22:55.621Z,0.00
2023-03-16T07:24:58.653Z,1.00
2023-03-16T07:27:00.301Z,1.00
2023-03-16T07:29:02.317Z,2.00
2023-03-16T07:31:04.611Z,1.33
2023-03-16T07:33:06.451Z,3.00
2023-03-16T07:35:09.365Z,1.67
2023-03-16T07:37:11.336Z,1.00
2023-03-16T07:39:12.874Z,1.00
2023-03-16T07:41:15.855Z,0.00
2023-03-16T07:43:17.401Z,1.00
2023-03-16T07:45:19.331Z,0.00
2023-03-16T07:47:21.760Z,1.33
2023-03-16T07:49:24.298Z,1.00
2023-03-16T07:51:26.110Z,1.00
2023-03-16T07:53:27.613Z,1.33
2023-03-16T07:55:29.176Z,0.67
2023-03-16T07:57:32.156Z,1.00
2023-03-16T07:59:34.449Z,1.00
2023-03-16T08:01:36.312Z,2.00
2023-03-16T08:03:38.857Z,1.00
2023-03-16T08:05:42.081Z,2.00
2023-03-16T08:07:43.899Z,2.00
2023-03-16T08:09:45.450Z,2.00
2023-03-16T08:11:47.069Z,2.00
2023-03-16T08:13:50.102Z,0.50
2023-03-16T08:15:53.009Z,1.00
2023-03-16T08:17:54.611Z,0.00
2023-03-16T08:19:56.416Z,1.00
2023-03-16T08:22:01.708Z,2.00
2023-03-16T08:24:04.250Z,2.00
2023-03-16T08:26:06.584Z,0.25
2023-03-16T08:28:08.591Z,2.00
2023-03-16T08:30:15.680Z,1.75
2023-03-16T08:32:17.580Z,2.00
2023-03-16T08:34:19.441Z,0.00
2023-03-16T08:36:21.176Z,1.00
2023-03-16T08:38:23.011Z,0.00
2023-03-16T08:40:26.462Z,2.00
2023-03-16T08:42:28.389Z,0.75
2023-03-16T08:44:30.142Z,0.25
2023-03-16T08:46:33.956Z,2.00
2023-03-16T08:48:36.165Z,1.00
2023-03-16T08:50:37.906Z,1.00
2023-03-16T08:52:39.882Z,1.50
2023-03-16T08:54:47.226Z,0.75
2023-03-16T08:56:55.038Z,0.00
2023-03-16T08:58:57.205Z,0.00
2023-03-16T09:00:59.068Z,1.00
2023-03-16T09:03:02.380Z,1.00
2023-03-16T09:05:04.337Z,1.00
2023-03-16T09:07:09.417Z,1.00
2023-03-16T09:09:11.499Z,0.50
2023-03-16T09:11:15.212Z,0.00
2023-03-16T09:13:17.007Z,0.50
2023-03-16T09:15:20.459Z,1.00
2023-03-16T09:17:22.469Z,0.00
2023-03-16T09:19:30.630Z,1.00
2023-03-16T09:21:36.914Z,1.00
2023-03-16T09:23:38.691Z,1.00
2023-03-16T09:25:43.256Z,0.75
2023-03-16T09:27:44.896Z,0.75
2023-03-16T09:29:46.758Z,2.00
2023-03-16T09:31:49.767Z,0.25
2023-03-16T09:33:51.342Z,1.00
2023-03-16T09:35:54.753Z,1.00
2023-03-16T09:38:05.527Z,0.00
2023-03-16T09:40:14.973Z,0.75
2023-03-16T09:42:25.527Z,0.75
2023-03-16T09:44:39.108Z,0.00
2023-03-16T09:46:44.196Z,0.00
2023-03-16T09:48:48.294Z,0.50
2023-03-16T09:50:51.520Z,1.00
2023-03-16T09:53:03.795Z,1.00
2023-03-16T09:55:12.678Z,1.00
2023-03-16T09:57:24.670Z,0.00
2023-03-16T09:59:26.564Z,0.75
2023-03-16T10:01:55.348Z,0.00
2023-03-16T10:04:11.825Z,1.00
2023-03-16T10:06:14.702Z,0.00
2023-03-16T10:08:23.182Z,0.75
2023-03-16T10:10:49.852Z,0.00
2023-03-16T10:12:53.268Z,0.00
2023-03-16T10:14:59.882Z,0.25
2023-03-16T10:17:06.517Z,0.80
2023-03-16T10:19:13.636Z,1.00
2023-03-16T10:21:18.134Z,0.00
2023-03-16T10:23:23.295Z,0.00
2023-03-16T10:25:32.816Z,0.00
2023-03-16T10:27:37.035Z,0.25
2023-03-16T10:29:39.968Z,0.00
2023-03-16T10:31:42.589Z,0.60
2023-03-16T10:33:44.256Z,1.00
2023-03-16T10:35:47.981Z,1.00
2023-03-16T10:37:49.692Z,0.00
2023-03-16T10:39:53.335Z,2.00
2023-03-16T10:41:57.647Z,0.00
2023-03-16T10:44:02.168Z,1.40
2023-03-16T10:46:03.998Z,0.60
2023-03-16T10:48:07.492Z,1.00
2023-03-16T10:50:15.222Z,1.20
2023-03-16T10:52:32.083Z,0.00
2023-03-16T10:54:35.923Z,0.00
2023-03-16T10:56:40.419Z,1.00
2023-03-16T10:58:43.531Z,0.00
2023-03-16T11:00:46.339Z,0.00
2023-03-16T11:02:49.541Z,1.00
2023-03-16T11:04:51.358Z,0.60
2023-03-16T11:06:56.079Z,0.00
2023-03-16T11:09:04.175Z,0.40
2023-03-16T11:11:10.231Z,0.00
2023-03-16T11:13:15.298Z,1.00
2023-03-16T11:15:25.767Z,0.00
2023-03-16T11:17:35.854Z,0.20
2023-03-16T11:19:44.948Z,0.00
2023-03-16T11:21:51.403Z,1.00
2023-03-16T11:23:55.731Z,0.00
2023-03-16T11:26:01.283Z,0.00
2023-03-16T11:28:13.517Z,0.00
2023-03-16T11:30:24.488Z,0.00
2023-03-16T11:32:31.033Z,0.00
2023-03-16T11:34:34.713Z,0.00
2023-03-16T11:36:45.934Z,0.00
2023-03-16T11:38:55.786Z,0.60
2023-03-16T11:41:01.213Z,0.00
2023-03-16T11:43:19.154Z,0.40
2023-03-16T11:45:34.273Z,0.00
2023-03-16T11:47:58.613Z,3.80
2023-03-16T11:50:05.838Z,0.00
2023-03-16T11:52:17.007Z,0.00
2023-03-16T11:54:39.691Z,1.00
2023-03-16T11:56:46.969Z,0.20
2023-03-16T11:59:23.544Z,0.40
2023-03-16T12:01:36.797Z,0.00
2023-03-16T12:03:52.415Z,0.80
2023-03-16T12:06:02.041Z,0.00
2023-03-16T12:08:20.163Z,0.00
2023-03-16T12:10:25.758Z,0.40
2023-03-16T12:12:40.093Z,0.00
2023-03-16T12:14:46.724Z,0.00
2023-03-16T12:16:56.261Z,0.00
2023-03-16T12:19:03.396Z,0.00
2023-03-16T12:21:11.616Z,0.00
2023-03-16T12:23:18.100Z,0.00
2023-03-16T12:25:22.266Z,0.00
2023-03-16T12:27:29.832Z,0.00
2023-03-16T12:29:36.620Z,0.80
2023-03-16T12:31:47.127Z,0.80
2023-03-16T12:34:02.363Z,0.80
2023-03-16T12:36:35.681Z,0.80
2023-03-16T12:38:46.344Z,0.40
2023-03-16T12:40:55.512Z,0.00
2023-03-16T12:43:09.137Z,0.00
2023-03-16T12:45:15.621Z,0.60
2023-03-16T12:47:28.359Z,0.00
2023-03-16T12:49:35.410Z,0.00
2023-03-16T12:51:39.374Z,0.80
2023-03-16T12:53:44.232Z,0.60
2023-03-16T12:55:45.857Z,0.00
2023-03-16T12:57:50.653Z,0.60
2023-03-16T12:59:56.030Z,0.00
2023-03-16T13:01:59.652Z,0.80
2023-03-16T13:04:06.767Z,0.00
2023-03-16T13:06:17.776Z,0.60
2023-03-16T13:08:21.771Z,0.00
2023-03-16T13:10:23.575Z,0.20
2023-03-16T13:12:28.316Z,0.40
2023-03-16T13:14:39.921Z,0.40
2023-03-16T13:16:41.768Z,0.60
2023-03-16T13:18:43.432Z,0.20
2023-03-16T13:20:53.190Z,0.40
2023-03-16T13:23:20.339Z,0.00
2023-03-16T13:25:34.792Z,0.00
2023-03-16T13:27:39.143Z,0.00
2023-03-16T13:29:40.961Z,0.80
2023-03-16T13:31:42.633Z,0.00
2023-03-16T13:33:46.450Z,0.00
2023-03-16T13:35:49.761Z,0.00
2023-03-16T13:37:51.814Z,0.00
2023-03-16T13:39:56.242Z,0.60
2023-03-16T13:41:59.816Z,1.40
2023-03-16T13:44:01.464Z,0.00
2023-03-16T13:46:14.401Z,0.00
2023-03-16T13:48:17.773Z,0.00
2023-03-16T13:50:20.456Z,1.00
2023-03-16T13:52:27.093Z,0.00
2023-03-16T13:54:31.042Z,0.00
2023-03-16T13:56:34.221Z,0.00
2023-03-16T13:58:38.324Z,0.00
2023-03-16T14:00:44.579Z,0.40
2023-03-16T14:02:47.875Z,0.40
2023-03-16T14:04:49.465Z,0.40
2023-03-16T14:06:56.126Z,0.00
2023-03-16T14:09:02.893Z,0.20
2023-03-16T14:11:05.242Z,0.00
2023-03-16T14:13:12.489Z,0.00
2023-03-16T14:15:14.692Z,0.00
2023-03-16T14:17:19.033Z,0.00
2023-03-16T14:19:24.020Z,0.00
2023-03-16T14:21:28.534Z,0.00
2023-03-16T14:23:35.871Z,0.00
2023-03-16T14:25:37.830Z,0.60
2023-03-16T14:27:44.291Z,0.40
2023-03-16T14:29:54.283Z,0.20
2023-03-16T14:31:57.163Z,1.00
2023-03-16T14:34:02.116Z,1.00
2023-03-16T14:36:17.092Z,1.00
2023-03-16T14:38:21.430Z,1.60
2023-03-16T14:40:29.578Z,0.00
2023-03-16T14:42:32.557Z,1.00
2023-03-16T14:44:36.155Z,1.00
2023-03-16T14:46:40.778Z,2.00
2023-03-16T14:48:43.134Z,1.00
2023-03-16T14:50:53.878Z,1.00
2023-03-16T14:52:56.800Z,1.00
2023-03-16T14:54:59.678Z,1.40
2023-03-16T14:57:04.928Z,1.00
2023-03-16T14:59:06.713Z,1.00
2023-03-16T15:01:16.332Z,1.20
2023-03-16T15:03:22.416Z,1.80
2023-03-16T15:05:31.854Z,1.00
2023-03-16T15:07:39.891Z,0.80
2023-03-16T15:09:42.555Z,0.80
2023-03-16T15:11:44.119Z,1.00
2023-03-16T15:13:47.025Z,1.60
2023-03-16T15:15:48.959Z,1.00
2023-03-16T15:17:52.369Z,1.00
2023-03-16T15:19:55.833Z,1.00
2023-03-16T15:22:00.214Z,1.00
2023-03-16T15:24:02.463Z,1.60
2023-03-16T15:26:04.878Z,2.00
2023-03-16T15:28:12.753Z,1.00
2023-03-16T15:30:17.907Z,1.00
2023-03-16T15:32:19.821Z,0.25
2023-03-16T15:34:21.621Z,1.00
2023-03-16T15:36:26.735Z,1.40
2023-03-16T15:38:31.589Z,0.00
2023-03-16T15:40:35.202Z,1.00
2023-03-16T15:42:38.930Z,0.75
2023-03-16T15:44:41.302Z,1.00
2023-03-16T15:46:43.190Z,0.25
2023-03-16T15:48:45.079Z,1.00
2023-03-16T15:50:52.028Z,1.00
2023-03-16T15:53:00.527Z,0.00
2023-03-16T15:55:02.556Z,1.00
2023-03-16T15:57:04.416Z,1.00
2023-03-16T15:59:06.693Z,1.00
2023-03-16T16:01:16.886Z,0.75
2023-03-16T16:03:21.967Z,1.50
2023-03-16T16:05:25.307Z,2.00
2023-03-16T16:07:26.957Z,0.50
2023-03-16T16:09:30.129Z,0.00
2023-03-16T16:11:31.915Z,0.00
2023-03-16T16:13:44.108Z,2.00
2023-03-16T16:15:46.970Z,0.00
2023-03-16T16:18:08.567Z,0.00
2023-03-16T16:20:19.563Z,0.00
2023-03-16T16:22:21.212Z,1.00
2023-03-16T16:24:23.015Z,0.50
2023-03-16T16:26:46.956Z,0.50
2023-03-16T16:28:49.814Z,0.00
2023-03-16T16:30:51.441Z,1.25
2023-03-16T16:32:55.411Z,0.50
2023-03-16T16:35:04.452Z,1.00
2023-03-16T16:37:06.504Z,0.00
2023-03-16T16:39:10.052Z,0.75
2023-03-16T16:41:25.728Z,0.25
2023-03-16T16:43:34.452Z,0.00
2023-03-16T16:45:36.109Z,1.00
2023-03-16T16:47:37.694Z,0.50
2023-03-16T16:49:39.214Z,0.50
2023-03-16T16:51:41.355Z,0.00
2023-03-16T16:53:43.547Z,1.00
2023-03-16T16:55:45.369Z,1.00
2023-03-16T16:57:49.439Z,1.00
2023-03-16T16:59:52.695Z,1.00
2023-03-16T17:01:54.483Z,0.00
2023-03-16T17:03:56.230Z,1.00
2023-03-16T17:05:58.923Z,1.75
2023-03-16T17:08:00.764Z,1.00
2023-03-16T17:10:02.623Z,1.00
2023-03-16T17:12:16.813Z,1.00
2023-03-16T17:14:20.834Z,2.00
2023-03-16T17:16:37.860Z,1.00
2023-03-16T17:18:39.609Z,1.75
2023-03-16T17:20:41.369Z,1.00
2023-03-16T17:22:47.002Z,1.50
2023-03-16T17:24:49.257Z,0.75
2023-03-16T17:26:53.155Z,0.00
2023-03-16T17:28:59.577Z,1.00
2023-03-16T17:31:01.454Z,2.00
2023-03-16T17:33:12.463Z,0.00
2023-03-16T17:35:15.091Z,0.00
2023-03-16T17:37:18.728Z,0.00
2023-03-16T17:39:22.290Z,1.00
2023-03-16T17:41:27.046Z,0.00
2023-03-16T17:43:29.419Z,1.00
2023-03-16T17:45:31.212Z,1.00
2023-03-16T17:47:33.224Z,0.75
2023-03-16T17:49:36.204Z,0.00
2023-03-16T17:51:40.364Z,0.00
2023-03-16T17:53:42.632Z,0.00
2023-03-16T17:55:45.877Z,1.00
2023-03-16T17:57:49.614Z,1.00
2023-03-16T17:59:51.330Z,1.00
2023-03-16T18:01:52.946Z,0.00
2023-03-16T18:03:56.863Z,0.75
2023-03-16T18:05:59.861Z,0.25
2023-03-16T18:08:13.082Z,1.00
2023-03-16T18:10:18.227Z,1.00
2023-03-16T18:12:20.007Z,1.00
2023-03-16T18:14:34.062Z,2.00
2023-03-16T18:16:36.574Z,1.75
2023-03-16T18:18:41.666Z,1.00
2023-03-16T18:20:43.574Z,1.00
2023-03-16T18:22:46.773Z,0.25
2023-03-16T18:24:49.661Z,0.00
2023-03-16T18:26:51.743Z,1.00
2023-03-16T18:28:53.765Z,1.00
2023-03-16T18:30:57.149Z,1.33
2023-03-16T18:33:00.211Z,1.00
2023-03-16T18:35:03.974Z,2.00
2023-03-16T18:37:13.286Z,0.00
2023-03-16T18:39:20.801Z,1.00
2023-03-16T18:41:25.577Z,0.33
2023-03-16T18:43:27.590Z,1.00
2023-03-16T18:45:30.295Z,1.00
2023-03-16T18:47:32.536Z,1.33
2023-03-16T18:49:35.917Z,1.00
2023-03-16T18:51:39.120Z,1.00
2023-03-16T18:53:40.939Z,0.33
2023-03-16T18:55:46.158Z,0.00
2023-03-16T18:57:49.067Z,1.00
2023-03-16T18:59:51.561Z,1.33
2023-03-16T19:01:53.811Z,0.00
2023-03-16T19:03:57.580Z,0.00
2023-03-16T19:06:02.056Z,1.00
2023-03-16T19:08:05.421Z,0.00
2023-03-16T19:10:23.702Z,0.33
2023-03-16T19:12:29.289Z,0.00
2023-03-16T19:14:32.440Z,0.00
2023-03-16T19:16:34.127Z,0.00
2023-03-16T19:18:35.738Z,1.00
2023-03-16T19:20:38.000Z,1.00
2023-03-16T19:22:39.857Z,0.00
2023-03-16T19:24:46.239Z,0.00
2023-03-16T19:26:47.816Z,0.00
2023-03-16T19:28:51.265Z,1.00
2023-03-16T19:30:53.371Z,0.33
2023-03-16T19:32:56.139Z,0.00
2023-03-16T19:34:57.882Z,1.00
2023-03-16T19:36:59.915Z,0.00
2023-03-16T19:39:03.511Z,0.00
2023-03-16T19:41:07.264Z,1.00
2023-03-16T19:43:16.237Z,1.00
2023-03-16T19:45:23.557Z,1.00
2023-03-16T19:47:28.885Z,0.00
2023-03-16T19:49:31.247Z,1.33
2023-03-16T19:51:33.088Z,1.00
2023-03-16T19:53:34.887Z,0.00
2023-03-16T19:55:36.725Z,2.00
2023-03-16T19:57:38.325Z,1.33
2023-03-16T19:59:42.509Z,1.33
2023-03-16T20:01:47.700Z,1.00
2023-03-16T20:03:51.644Z,2.00
2023-03-16T20:05:55.036Z,1.00
2023-03-16T20:07:59.820Z,2.00
2023-03-16T20:10:01.778Z,1.33
2023-03-16T20:12:04.036Z,1.00
2023-03-16T20:14:05.988Z,1.33
2023-03-16T20:16:11.446Z,3.00
2023-03-16T20:18:16.767Z,2.00
2023-03-16T20:20:21.981Z,1.00
2023-03-16T20:22:25.583Z,2.00
2023-03-16T20:24:27.467Z,2.00
2023-03-16T20:26:31.358Z,2.00
2023-03-16T20:28:36.595Z,2.67
2023-03-16T20:30:39.402Z,2.00
2023-03-16T20:32:41.553Z,2.00
2023-03-16T20:34:45.266Z,1.00
2023-03-16T20:36:47.170Z,2.00
2023-03-16T20:38:49.375Z,2.00
2023-03-16T20:40:52.910Z,2.00
2023-03-16T20:42:54.805Z,1.67
2023-03-16T20:44:56.971Z,1.67
2023-03-16T20:46:59.046Z,2.00
2023-03-16T20:49:01.808Z,2.00
2023-03-16T20:51:06.082Z,1.67
2023-03-16T20:53:08.078Z,2.00
2023-03-16T20:55:14.647Z,2.00
2023-03-16T20:57:20.541Z,2.33
2023-03-16T20:59:24.872Z,2.00
2023-03-16T21:01:26.911Z,1.33
2023-03-16T21:03:30.570Z,0.00
2023-03-16T21:05:32.421Z,2.00
2023-03-16T21:07:35.527Z,1.67
2023-03-16T21:09:37.071Z,2.00
2023-03-16T21:11:39.307Z,2.00
2023-03-16T21:13:43.331Z,2.33
2023-03-16T21:15:45.968Z,1.00
2023-03-16T21:17:56.143Z,1.67
2023-03-16T21:19:58.805Z,1.33
2023-03-16T21:22:01.412Z,0.00
2023-03-16T21:24:04.800Z,2.00
2023-03-16T21:26:07.140Z,1.00
2023-03-16T21:28:12.570Z,3.67
2023-03-16T21:30:23.241Z,1.00
2023-03-16T21:32:27.646Z,3.00
2023-03-16T21:34:35.946Z,3.00
2023-03-16T21:36:37.758Z,2.33
2023-03-16T21:38:39.393Z,2.33
2023-03-16T21:40:42.746Z,3.00
2023-03-16T21:42:45.368Z,2.33
2023-03-16T21:44:48.524Z,3.67
2023-03-16T21:46:50.333Z,3.00
2023-03-16T21:48:55.435Z,3.67
2023-03-16T21:50:58.958Z,2.33
2023-03-16T21:53:01.099Z,3.00
2023-03-16T21:55:03.044Z,2.33
2023-03-16T21:57:13.934Z,5.33
2023-03-16T21:59:16.005Z,2.00
2023-03-16T22:01:22.203Z,3.00
2023-03-16T22:03:29.605Z,2.67
2023-03-16T22:05:37.232Z,4.33
2023-03-16T22:07:39.637Z,3.67
2023-03-16T22:09:41.720Z,4.33
2023-03-16T22:11:43.310Z,3.00
2023-03-16T22:13:47.161Z,6.00
2023-03-16T22:15:50.809Z,6.33
2023-03-16T22:17:53.875Z,5.00
2023-03-16T22:19:55.623Z,4.33
2023-03-16T22:21:57.286Z,1.00
2023-03-16T22:24:00.692Z,4.00
2023-03-16T22:26:04.473Z,3.00
2023-03-16T22:28:11.857Z,2.00
2023-03-16T22:30:20.632Z,5.00
2023-03-16T22:32:22.743Z,5.33
2023-03-16T22:34:31.404Z,3.67
2023-03-16T22:36:34.374Z,3.67
2023-03-16T22:38:36.811Z,3.00
2023-03-16T22:40:39.027Z,3.00
2023-03-16T22:42:40.903Z,4.33
2023-03-16T22:44:42.684Z,3.00
2023-03-16T22:46:46.570Z,1.33
2023-03-16T22:48:49.434Z,4.33
2023-03-16T22:50:52.390Z,5.33
2023-03-16T22:52:57.256Z,3.00
2023-03-16T22:55:01.310Z,6.00
2023-03-16T22:57:03.337Z,4.33
2023-03-16T22:59:08.585Z,3.67
2023-03-16T23:01:16.345Z,3.00
2023-03-16T23:03:21.551Z,3.00
2023-03-16T23:05:26.278Z,3.00
2023-03-16T23:07:27.884Z,3.00
2023-03-16T23:09:29.682Z,3.00
2023-03-16T23:11:33.867Z,2.00
2023-03-16T23:13:36.224Z,5.00
2023-03-16T23:15:38.277Z,5.00
2023-03-16T23:17:40.159Z,5.00
2023-03-16T23:19:43.679Z,3.00
2023-03-16T23:21:45.293Z,3.00
2023-03-16T23:23:57.094Z,0.00
2023-03-16T23:26:02.547Z,3.00
2023-03-16T23:28:05.078Z,2.00
2023-03-16T23:30:16.188Z,3.00
2023-03-16T23:32:17.958Z,3.00
2023-03-16T23:34:22.131Z,3.00
2023-03-16T23:36:25.776Z,5.00
2023-03-16T23:38:27.878Z,3.00
2023-03-16T23:40:30.432Z,2.00
2023-03-16T23:42:32.512Z,0.00
2023-03-16T23:44:34.464Z,1.00
2023-03-16T23:46:36.046Z,2.00
2023-03-16T23:48:38.798Z,2.33
2023-03-16T23:50:41.321Z,3.00
2023-03-16T23:52:47.319Z,3.00
2023-03-16T23:54:50.315Z,2.33
2023-03-16T23:56:52.620Z,2.00
2023-03-16T23:58:54.253Z,3.00
